createdAt,value
2022-10-08T00:02:19.547Z,10.30
2022-10-08T00:06:28.201Z,10.29
2022-10-08T00:10:30.448Z,10.26
2022-10-08T00:14:32.132Z,10.15
2022-10-08T00:18:34.097Z,10.10
2022-10-08T00:22:35.656Z,10.09
2022-10-08T00:26:43.642Z,10.02
2022-10-08T00:30:46.174Z,10.00
2022-10-08T00:34:48.096Z,9.97
2022-10-08T00:38:54.308Z,9.99
2022-10-08T00:42:56.368Z,9.97
2022-10-08T00:47:32.773Z,10.01
2022-10-08T00:51:34.748Z,9.99
2022-10-08T00:55:43.619Z,10.02
2022-10-08T00:59:47.017Z,9.93
2022-10-08T01:03:48.743Z,9.89
2022-10-08T01:08:15.303Z,9.87
2022-10-08T01:12:55.653Z,9.94
2022-10-08T01:17:07.940Z,9.91
2022-10-08T01:21:22.802Z,9.98
2022-10-08T01:25:45.691Z,10.04
2022-10-08T01:29:50.269Z,9.99
2022-10-08T01:34:01.928Z,10.11
2022-10-08T01:38:07.070Z,10.07
2022-10-08T01:42:10.992Z,10.14
2022-10-08T01:46:25.357Z,10.12
2022-10-08T01:50:33.013Z,10.17
2022-10-08T01:54:37.306Z,10.14
2022-10-08T01:58:54.349Z,10.17
2022-10-08T02:02:56.828Z,10.06
2022-10-08T02:07:08.937Z,10.03
2022-10-08T02:11:10.705Z,10.05
2022-10-08T02:15:23.546Z,10.03
2022-10-08T02:19:41.925Z,10.06
2022-10-08T02:23:54.024Z,10.01
2022-10-08T02:28:15.958Z,10.06
2022-10-08T02:32:35.905Z,10.06
2022-10-08T02:36:41.895Z,10.12
2022-10-08T02:40:48.605Z,10.13
2022-10-08T02:45:04.154Z,10.09
2022-10-08T02:49:12.116Z,10.11
2022-10-08T02:53:18.300Z,10.02
2022-10-08T02:57:32.055Z,10.10
2022-10-08T03:01:55.719Z,10.09
2022-10-08T03:06:02.154Z,10.03
2022-10-08T03:10:06.330Z,9.96
2022-10-08T03:14:12.419Z,9.86
2022-10-08T03:18:14.783Z,9.83
2022-10-08T03:22:41.344Z,9.81
2022-10-08T03:26:44.102Z,9.62
2022-10-08T03:30:47.508Z,9.64
2022-10-08T03:34:49.579Z,9.64
2022-10-08T03:38:52.350Z,9.74
2022-10-08T03:42:54.232Z,9.73
2022-10-08T03:46:55.828Z,9.71
2022-10-08T03:51:04.438Z,9.79
2022-10-08T03:55:06.979Z,9.78
2022-10-08T03:59:08.832Z,9.79
2022-10-08T04:03:10.890Z,9.80
2022-10-08T04:07:12.749Z,9.91
2022-10-08T04:11:16.414Z,10.07
2022-10-08T04:15:18.546Z,10.16
2022-10-08T04:19:20.407Z,10.26
2022-10-08T04:23:22.287Z,10.24
2022-10-08T04:27:24.012Z,10.29
2022-10-08T04:31:26.043Z,10.29
2022-10-08T04:35:27.775Z,10.37
2022-10-08T04:39:29.724Z,10.37
2022-10-08T04:43:31.974Z,10.43
2022-10-08T04:47:34.014Z,10.48
2022-10-08T04:51:35.731Z,10.58
2022-10-08T04:55:37.764Z,10.63
2022-10-08T04:59:53.763Z,10.64
2022-10-08T05:04:01.282Z,10.61
2022-10-08T05:08:03.172Z,10.62
2022-10-08T05:12:05.373Z,10.69
2022-10-08T05:16:12.605Z,10.78
2022-10-08T05:20:14.673Z,10.86
2022-10-08T05:24:16.350Z,10.91
2022-10-08T05:28:18.222Z,10.94
2022-10-08T05:32:20.180Z,11.02
2022-10-08T05:36:34.713Z,11.09
2022-10-08T05:40:36.277Z,11.10
2022-10-08T05:44:38.744Z,11.06
2022-10-08T05:48:42.055Z,11.00
2022-10-08T05:52:44.131Z,11.00
2022-10-08T05:56:46.537Z,10.98
2022-10-08T06:00:57.499Z,11.04
2022-10-08T06:04:59.273Z,11.11
2022-10-08T06:09:02.004Z,11.26
2022-10-08T06:13:03.728Z,11.38
2022-10-08T06:17:05.567Z,11.66
2022-10-08T06:21:13.906Z,12.03
2022-10-08T06:25:15.918Z,12.21
2022-10-08T06:29:18.813Z,12.43
2022-10-08T06:33:21.353Z,12.75
2022-10-08T06:37:23.057Z,12.91
2022-10-08T06:41:26.062Z,13.06
2022-10-08T06:45:27.921Z,13.25
2022-10-08T06:49:30.112Z,13.33
2022-10-08T06:53:32.370Z,13.39
2022-10-08T06:57:34.333Z,13.50
2022-10-08T07:01:36.523Z,13.56
2022-10-08T07:05:38.729Z,13.68
2022-10-08T07:09:40.551Z,13.83
2022-10-08T07:13:43.510Z,13.98
2022-10-08T07:17:45.170Z,14.04
2022-10-08T07:21:47.319Z,14.19
2022-10-08T07:26:06.447Z,14.18
2022-10-08T07:30:08.567Z,14.25
2022-10-08T07:34:13.113Z,14.46
2022-10-08T07:38:18.836Z,14.52
2022-10-08T07:42:20.518Z,14.71
2022-10-08T07:46:22.751Z,14.65
2022-10-08T07:50:24.463Z,14.86
2022-10-08T07:54:26.406Z,14.96
2022-10-08T07:58:28.089Z,14.89
2022-10-08T08:02:30.001Z,15.06
2022-10-08T08:06:33.346Z,15.21
2022-10-08T08:10:35.477Z,15.41
2022-10-08T08:14:37.142Z,15.55
2022-10-08T08:18:41.283Z,15.73
2022-10-08T08:22:42.943Z,15.92
2022-10-08T08:26:45.094Z,16.09
2022-10-08T08:30:46.702Z,16.20
2022-10-08T08:34:48.798Z,16.50
2022-10-08T08:38:50.438Z,16.73
2022-10-08T08:42:56.818Z,16.91
2022-10-08T08:47:04.251Z,17.15
2022-10-08T08:51:06.171Z,17.24
2022-10-08T08:55:17.334Z,17.14
2022-10-08T08:59:27.299Z,17.42
2022-10-08T09:03:34.902Z,17.56
2022-10-08T09:07:45.767Z,17.69
2022-10-08T09:11:47.971Z,17.77
2022-10-08T09:15:50.360Z,18.17
2022-10-08T09:19:52.560Z,18.43
2022-10-08T09:23:54.439Z,18.46
2022-10-08T09:28:00.178Z,18.42
2022-10-08T09:32:02.306Z,18.62
2022-10-08T09:36:04.181Z,18.66
2022-10-08T09:40:17.561Z,18.63
2022-10-08T09:44:21.706Z,18.78
2022-10-08T09:48:28.624Z,19.08
2022-10-08T09:52:32.785Z,19.31
2022-10-08T09:56:35.055Z,18.91
2022-10-08T10:00:39.475Z,18.75
2022-10-08T10:04:41.496Z,18.72
2022-10-08T10:09:16.872Z,18.62
2022-10-08T10:13:34.335Z,18.91
2022-10-08T10:17:52.159Z,18.97
2022-10-08T10:22:07.867Z,19.32
2022-10-08T10:26:29.260Z,19.40
2022-10-08T10:30:41.838Z,19.54
2022-10-08T10:34:47.626Z,19.36
2022-10-08T10:39:03.021Z,19.40
2022-10-08T10:43:20.791Z,19.35
2022-10-08T10:47:29.588Z,19.40
2022-10-08T10:51:48.840Z,19.65
2022-10-08T10:56:21.598Z,19.61
2022-10-08T11:00:27.983Z,19.57
2022-10-08T11:04:45.925Z,19.49
2022-10-08T11:09:01.829Z,19.41
2022-10-08T11:13:36.577Z,19.21
2022-10-08T11:17:41.334Z,19.08
2022-10-08T11:22:18.256Z,18.92
2022-10-08T11:26:25.503Z,18.80
2022-10-08T11:30:48.233Z,18.68
2022-10-08T11:35:01.266Z,18.43
2022-10-08T11:39:16.046Z,18.51
2022-10-08T11:43:30.678Z,18.67
2022-10-08T11:47:46.266Z,18.54
2022-10-08T11:51:52.345Z,18.71
2022-10-08T11:55:57.004Z,18.83
2022-10-08T12:00:07.807Z,18.90
2022-10-08T12:04:22.263Z,19.00
2022-10-08T12:08:47.885Z,19.06
2022-10-08T12:12:49.846Z,19.02
2022-10-08T12:16:54.684Z,19.05
2022-10-08T12:21:20.420Z,19.07
2022-10-08T12:25:36.733Z,19.15
2022-10-08T12:29:58.646Z,19.05
2022-10-08T12:34:14.422Z,19.12
2022-10-08T12:38:37.371Z,19.33
2022-10-08T12:42:41.066Z,19.36
2022-10-08T12:46:58.417Z,19.67
2022-10-08T12:51:18.440Z,19.96
2022-10-08T12:55:23.232Z,19.86
2022-10-08T12:59:27.567Z,19.69
2022-10-08T13:03:29.326Z,19.66
2022-10-08T13:07:33.999Z,19.82
2022-10-08T13:11:35.911Z,19.91
2022-10-08T13:15:37.807Z,19.90
2022-10-08T13:19:40.826Z,20.19
2022-10-08T13:23:44.200Z,19.74
2022-10-08T13:28:05.860Z,19.66
2022-10-08T13:32:13.809Z,19.28
2022-10-08T13:36:22.116Z,19.17
2022-10-08T13:40:24.274Z,19.24
2022-10-08T13:44:27.516Z,19.50
2022-10-08T13:48:29.791Z,19.45
2022-10-08T13:52:33.855Z,19.27
2022-10-08T13:56:35.667Z,19.16
2022-10-08T14:00:40.020Z,19.11
2022-10-08T14:04:42.602Z,19.03
2022-10-08T14:08:44.423Z,18.96
2022-10-08T14:12:46.710Z,18.96
2022-10-08T14:16:48.461Z,18.96
2022-10-08T14:20:51.356Z,18.86
2022-10-08T14:24:53.726Z,18.84
2022-10-08T14:28:56.789Z,18.82
2022-10-08T14:32:58.689Z,18.74
2022-10-08T14:37:00.649Z,18.70
2022-10-08T14:41:02.327Z,18.70
2022-10-08T14:45:04.745Z,18.73
2022-10-08T14:49:06.631Z,18.63
2022-10-08T14:53:08.488Z,18.52
2022-10-08T14:57:10.548Z,18.47
2022-10-08T15:01:12.547Z,18.43
2022-10-08T15:05:14.487Z,18.33
2022-10-08T15:09:16.876Z,18.30
2022-10-08T15:13:18.832Z,18.16
2022-10-08T15:17:20.702Z,18.11
2022-10-08T15:21:22.522Z,17.99
2022-10-08T15:25:24.484Z,17.75
2022-10-08T15:29:26.133Z,17.79
2022-10-08T15:33:28.081Z,17.63
2022-10-08T15:37:29.861Z,17.55
2022-10-08T15:41:35.934Z,17.47
2022-10-08T15:45:44.085Z,17.44
2022-10-08T15:49:46.193Z,17.29
2022-10-08T15:53:47.983Z,17.16
2022-10-08T15:57:49.823Z,17.11
2022-10-08T16:01:51.632Z,17.07
2022-10-08T16:05:59.485Z,17.11
2022-10-08T16:10:01.221Z,17.13
2022-10-08T16:14:06.511Z,17.08
2022-10-08T16:18:08.171Z,17.05
2022-10-08T16:22:10.077Z,17.15
2022-10-08T16:26:13.436Z,17.00
2022-10-08T16:30:15.277Z,17.12
2022-10-08T16:34:21.164Z,16.99
2022-10-08T16:38:23.188Z,16.84
2022-10-08T16:42:25.716Z,16.60
2022-10-08T16:46:31.167Z,16.17
2022-10-08T16:50:40.149Z,15.94
2022-10-08T16:54:42.096Z,15.84
2022-10-08T16:58:44.011Z,15.74
2022-10-08T17:02:46.230Z,15.65
2022-10-08T17:06:48.399Z,15.54
2022-10-08T17:10:50.213Z,15.58
2022-10-08T17:14:51.971Z,15.38
2022-10-08T17:18:57.302Z,15.39
2022-10-08T17:22:58.933Z,15.31
2022-10-08T17:27:00.843Z,15.37
2022-10-08T17:31:04.332Z,15.36
2022-10-08T17:35:06.544Z,15.36
2022-10-08T17:39:11.732Z,15.31
2022-10-08T17:43:13.534Z,15.34
2022-10-08T17:47:15.253Z,15.29
2022-10-08T17:51:19.492Z,15.31
2022-10-08T17:55:21.060Z,15.32
2022-10-08T17:59:22.924Z,15.33
2022-10-08T18:03:24.913Z,15.27
2022-10-08T18:07:26.740Z,15.30
2022-10-08T18:11:30.322Z,15.30
2022-10-08T18:15:36.610Z,15.31
2022-10-08T18:19:38.382Z,15.16
2022-10-08T18:23:45.989Z,15.11
2022-10-08T18:27:48.039Z,15.04
2022-10-08T18:31:49.909Z,15.03
2022-10-08T18:35:51.694Z,14.96
2022-10-08T18:39:53.706Z,14.94
2022-10-08T18:43:56.516Z,14.84
2022-10-08T18:47:59.057Z,14.84
2022-10-08T18:52:01.586Z,14.66
2022-10-08T18:56:06.467Z,14.45
2022-10-08T19:00:09.195Z,14.47
2022-10-08T19:04:17.168Z,14.43
2022-10-08T19:08:19.104Z,14.21
2022-10-08T19:12:20.961Z,14.18
2022-10-08T19:16:22.853Z,14.11
2022-10-08T19:20:24.746Z,14.04
2022-10-08T19:24:27.411Z,14.00
2022-10-08T19:28:29.476Z,13.91
2022-10-08T19:32:31.164Z,13.92
2022-10-08T19:36:36.713Z,13.89
2022-10-08T19:40:38.583Z,13.88
2022-10-08T19:44:40.573Z,13.83
2022-10-08T19:48:42.342Z,13.84
2022-10-08T19:52:46.546Z,13.69
2022-10-08T19:56:51.498Z,13.65
2022-10-08T20:01:08.562Z,13.57
2022-10-08T20:05:10.540Z,13.59
2022-10-08T20:09:13.268Z,13.51
2022-10-08T20:13:15.020Z,13.44
2022-10-08T20:17:17.200Z,13.38
2022-10-08T20:21:19.726Z,13.26
2022-10-08T20:25:22.801Z,13.32
2022-10-08T20:29:30.038Z,13.26
2022-10-08T20:33:32.750Z,13.25
2022-10-08T20:37:34.797Z,13.18
2022-10-08T20:41:36.700Z,13.20
2022-10-08T20:45:38.345Z,13.12
2022-10-08T20:49:40.226Z,13.03
2022-10-08T20:53:53.725Z,13.11
2022-10-08T20:57:55.859Z,12.98
2022-10-08T21:01:57.562Z,13.04
2022-10-08T21:06:00.471Z,12.91
2022-10-08T21:10:02.152Z,12.97
2022-10-08T21:14:06.856Z,12.98
2022-10-08T21:18:08.863Z,12.87
2022-10-08T21:22:10.697Z,13.03
2022-10-08T21:26:16.763Z,12.91
2022-10-08T21:30:18.665Z,13.01
2022-10-08T21:34:20.423Z,12.99
2022-10-08T21:38:22.502Z,12.95
2022-10-08T21:42:24.202Z,12.96
2022-10-08T21:46:28.743Z,13.00
2022-10-08T21:50:35.262Z,12.97
2022-10-08T21:54:37.872Z,12.75
2022-10-08T21:58:45.334Z,12.76
2022-10-08T22:02:47.403Z,12.78
2022-10-08T22:06:55.252Z,12.62
2022-10-08T22:10:57.608Z,12.52
2022-10-08T22:14:59.269Z,12.47
2022-10-08T22:19:01.260Z,12.44
2022-10-08T22:23:02.969Z,12.39
2022-10-08T22:27:04.996Z,12.25
2022-10-08T22:31:08.706Z,12.26
2022-10-08T22:35:10.577Z,12.11
2022-10-08T22:39:12.764Z,12.08
2022-10-08T22:43:15.129Z,12.08
2022-10-08T22:47:16.846Z,11.90
2022-10-08T22:51:21.598Z,11.81
2022-10-08T22:55:23.328Z,11.79
2022-10-08T22:59:25.296Z,11.88
2022-10-08T23:03:27.439Z,11.77
2022-10-08T23:07:29.531Z,11.66
2022-10-08T23:11:32.015Z,11.53
2022-10-08T23:15:33.817Z,11.40
2022-10-08T23:19:35.553Z,11.40
2022-10-08T23:23:37.464Z,11.34
2022-10-08T23:27:39.213Z,11.27
2022-10-08T23:31:41.319Z,11.26
2022-10-08T23:35:43.272Z,11.32
2022-10-08T23:39:45.141Z,11.39
2022-10-08T23:43:48.850Z,11.41
2022-10-08T23:47:50.702Z,11.35
2022-10-08T23:51:52.450Z,11.22
2022-10-08T23:55:54.621Z,11.24
2022-10-08T23:59:56.797Z,11.27
